createdAt,value
2018-04-09T00:02:09.812Z,28.90
2018-04-09T00:04:51.324Z,31.23
2018-04-09T00:07:32.871Z,32.87
2018-04-09T00:10:15.046Z,26.52
2018-04-09T00:12:57.254Z,30.52
2018-04-09T00:15:38.763Z,29.90
2018-04-09T00:18:20.145Z,24.85
2018-04-09T00:21:02.781Z,26.87
2018-04-09T00:23:44.497Z,32.37
2018-04-09T00:26:12.648Z,26.00
2018-04-09T00:28:40.836Z,28.73
2018-04-09T00:31:23.077Z,35.73
2018-04-09T00:34:05.278Z,31.07
2018-04-09T00:36:46.892Z,27.37
2018-04-09T00:39:28.183Z,29.87
2018-04-09T00:42:09.744Z,28.95
2018-04-09T00:44:51.838Z,32.70
2018-04-09T00:47:33.541Z,26.65
2018-04-09T00:50:15.333Z,27.00
2018-04-09T00:52:57.359Z,30.37
2018-04-09T00:55:25.681Z,26.53
2018-04-09T00:58:09.159Z,31.93
2018-04-09T01:03:24.069Z,32.47
2018-04-09T01:06:06.277Z,29.30
2018-04-09T01:08:51.633Z,34.67
2018-04-09T01:11:33.375Z,30.60
2018-04-09T01:14:14.812Z,27.90
2018-04-09T01:16:43.093Z,34.67
2018-04-09T01:19:24.469Z,31.15
2018-04-09T01:22:06.470Z,39.47
2018-04-09T01:24:47.261Z,32.33
2018-04-09T01:27:15.423Z,32.10
2018-04-09T01:29:58.268Z,28.20
2018-04-09T01:32:39.795Z,29.70
2018-04-09T01:35:21.368Z,27.75
2018-04-09T01:37:49.544Z,50.80
2018-04-09T01:40:17.729Z,29.67
2018-04-09T01:42:45.909Z,28.35
2018-04-09T01:45:26.805Z,33.97
2018-04-09T01:48:08.110Z,29.98
2018-04-09T01:50:49.588Z,33.10
2018-04-09T01:53:30.905Z,33.45
2018-04-09T01:56:11.785Z,32.93
2018-04-09T01:58:53.092Z,33.90
2018-04-09T02:01:33.857Z,36.60
2018-04-09T02:04:02.047Z,35.13
2018-04-09T02:06:44.564Z,36.10
2018-04-09T02:09:25.870Z,34.43
2018-04-09T02:12:07.973Z,31.33
2018-04-09T02:14:49.225Z,34.33
2018-04-09T02:17:31.507Z,30.43
2018-04-09T02:20:13.518Z,31.33
2018-04-09T02:22:54.998Z,40.90
2018-04-09T02:25:23.178Z,37.20
2018-04-09T02:28:04.594Z,32.70
2018-04-09T02:30:32.778Z,29.37
2018-04-09T02:33:14.392Z,46.20
2018-04-09T02:35:42.654Z,111.80
2018-04-09T02:38:10.830Z,123.03
2018-04-09T02:40:52.280Z,179.75
2018-04-09T02:43:33.134Z,151.32
2018-04-09T02:46:01.312Z,163.93
2018-04-09T02:48:45.491Z,121.07
2018-04-09T02:51:27.225Z,110.97
2018-04-09T02:54:08.906Z,146.70
2018-04-09T02:56:51.001Z,95.40
2018-04-09T02:59:19.173Z,70.80
2018-04-09T03:01:47.349Z,54.33
2018-04-09T03:04:29.386Z,38.27
2018-04-09T03:07:11.095Z,50.33
2018-04-09T03:09:53.307Z,52.03
2018-04-09T03:12:34.910Z,44.20
2018-04-09T03:15:16.925Z,37.83
2018-04-09T03:17:59.033Z,34.90
2018-04-09T03:20:40.434Z,34.43
2018-04-09T03:23:08.588Z,32.50
2018-04-09T03:25:50.956Z,36.47
2018-04-09T03:28:32.629Z,34.53
2018-04-09T03:31:00.815Z,51.97
2018-04-09T03:33:28.980Z,45.67
2018-04-09T03:36:10.525Z,50.40
2018-04-09T03:38:52.820Z,42.78
2018-04-09T03:41:20.999Z,122.97
2018-04-09T03:44:02.713Z,137.30
2018-04-09T03:46:30.888Z,133.18
2018-04-09T03:49:12.219Z,136.07
2018-04-09T03:51:40.393Z,108.12
2018-04-09T03:54:08.536Z,91.90
2018-04-09T04:00:36.811Z,75.50
2018-04-09T04:03:04.966Z,43.05
2018-04-09T04:05:46.278Z,41.70
2018-04-09T04:08:27.465Z,53.57
2018-04-09T04:11:09.704Z,42.08
2018-04-09T04:13:51.493Z,49.33
2018-04-09T04:16:33.117Z,43.00
2018-04-09T04:19:14.893Z,45.52
2018-04-09T04:21:58.107Z,53.95
2018-04-09T04:24:40.351Z,41.57
2018-04-09T04:27:21.986Z,53.95
2018-04-09T04:30:02.756Z,42.70
2018-04-09T04:32:31.024Z,56.43
2018-04-09T04:35:13.158Z,42.05
2018-04-09T04:37:53.970Z,48.40
2018-04-09T04:40:22.084Z,48.15
2018-04-09T04:42:50.284Z,48.77
2018-04-09T04:45:18.498Z,45.23
2018-04-09T04:47:59.977Z,52.20
2018-04-09T04:50:28.162Z,47.67
2018-04-09T04:53:09.861Z,49.30
2018-04-09T04:55:51.175Z,42.47
2018-04-09T04:58:33.291Z,38.92
2018-04-09T05:01:01.416Z,41.77
2018-04-09T05:03:43.083Z,47.53
2018-04-09T05:06:11.248Z,45.20
2018-04-09T05:08:39.414Z,53.78
2018-04-09T05:11:20.357Z,41.27
2018-04-09T05:14:01.949Z,60.25
2018-04-09T05:16:43.552Z,57.73
2018-04-09T05:19:24.820Z,51.05
2018-04-09T05:22:07.054Z,115.17
2018-04-09T05:24:35.225Z,134.18
2018-04-09T05:27:03.388Z,126.80
2018-04-09T05:29:31.604Z,152.13
2018-04-09T05:32:13.709Z,105.17
2018-04-09T05:37:15.923Z,62.13
2018-04-09T05:39:58.033Z,59.33
2018-04-09T05:42:39.438Z,60.10
2018-04-09T05:45:20.945Z,71.87
2018-04-09T05:48:02.250Z,44.80
2018-04-09T05:50:30.467Z,45.00
2018-04-09T05:53:12.146Z,58.93
2018-04-09T05:55:40.594Z,45.93
2018-04-09T05:58:22.197Z,46.13
2018-04-09T06:06:30.962Z,74.72
2018-04-09T06:09:12.386Z,63.40
2018-04-09T06:11:40.589Z,73.25
2018-04-09T06:14:22.349Z,71.07
2018-04-09T06:16:51.121Z,65.30
2018-04-09T06:19:32.835Z,77.60
2018-04-09T06:22:14.514Z,75.60
2018-04-09T06:24:56.614Z,52.77
2018-04-09T06:27:37.502Z,49.33
2018-04-09T06:30:18.237Z,53.13
2018-04-09T06:33:00.181Z,49.67
2018-04-09T06:35:42.310Z,60.07
2018-04-09T06:38:23.868Z,62.97
2018-04-09T06:41:05.869Z,66.73
2018-04-09T06:43:47.957Z,46.75
2018-04-09T06:46:28.683Z,84.40
2018-04-09T06:49:09.447Z,59.10
2018-04-09T06:51:50.332Z,54.43
2018-04-09T06:54:31.489Z,81.42
2018-04-09T06:57:13.637Z,59.03
2018-04-09T06:59:55.603Z,51.67
2018-04-09T07:02:36.933Z,57.07
2018-04-09T07:05:18.178Z,56.83
2018-04-09T07:07:59.503Z,53.27
2018-04-09T07:10:41.086Z,55.00
2018-04-09T07:13:23.167Z,73.27
2018-04-09T07:15:51.353Z,66.33
2018-04-09T07:18:32.981Z,87.50
2018-04-09T07:21:01.106Z,74.55
2018-04-09T07:23:29.239Z,86.77
2018-04-09T07:28:30.962Z,87.77
2018-04-09T07:31:12.515Z,82.00
2018-04-09T07:33:40.644Z,75.47
2018-04-09T07:36:22.659Z,88.57
2018-04-09T07:41:38.122Z,64.50
2018-04-09T07:44:06.232Z,70.00
2018-04-09T07:46:48.171Z,107.10
2018-04-09T07:49:16.282Z,85.80
2018-04-09T07:51:57.161Z,79.43
2018-04-09T07:54:38.499Z,111.77
2018-04-09T07:57:19.868Z,81.08
2018-04-09T08:00:01.033Z,84.73
2018-04-09T08:02:42.480Z,77.57
2018-04-09T08:05:24.746Z,57.93
2018-04-09T08:08:05.517Z,76.50
2018-04-09T08:10:47.468Z,88.87
2018-04-09T08:13:28.246Z,89.00
2018-04-09T08:15:56.382Z,58.80
2018-04-09T08:18:38.521Z,77.73
2018-04-09T08:21:06.696Z,58.93
2018-04-09T08:23:48.843Z,91.73
2018-04-09T08:26:30.970Z,64.30
2018-04-09T08:29:12.647Z,63.70
2018-04-09T08:31:53.805Z,76.50
2018-04-09T08:34:35.446Z,87.30
2018-04-09T08:37:16.315Z,62.43
2018-04-09T08:39:58.387Z,72.20
2018-04-09T08:42:26.533Z,56.00
2018-04-09T08:45:07.311Z,52.60
2018-04-09T08:47:48.058Z,64.83
2018-04-09T08:50:30.188Z,52.93
2018-04-09T08:52:58.394Z,66.70
2018-04-09T08:55:26.677Z,73.87
2018-04-09T08:57:54.814Z,45.67
2018-04-09T09:00:35.664Z,74.93
2018-04-09T09:03:17.805Z,65.30
2018-04-09T09:05:45.942Z,55.67
2018-04-09T09:08:26.954Z,68.80
2018-04-09T09:11:09.150Z,67.58
2018-04-09T09:13:37.335Z,74.87
2018-04-09T09:16:18.785Z,73.77
2018-04-09T09:18:47.002Z,62.60
2018-04-09T09:21:27.830Z,57.53
2018-04-09T09:24:09.316Z,61.03
2018-04-09T09:26:51.367Z,57.57
2018-04-09T09:29:33.449Z,59.30
2018-04-09T09:32:14.839Z,57.03
2018-04-09T09:34:56.541Z,59.87
2018-04-09T09:37:37.375Z,49.50
2018-04-09T09:40:18.725Z,49.37
2018-04-09T09:43:00.857Z,57.20
2018-04-09T09:45:41.735Z,55.20
2018-04-09T09:48:23.298Z,51.53
2018-04-09T09:51:04.069Z,59.50
2018-04-09T09:53:32.240Z,47.97
2018-04-09T09:56:14.836Z,53.13
2018-04-09T09:58:56.199Z,41.65
2018-04-09T10:01:42.811Z,57.53
2018-04-09T10:04:24.928Z,55.83
2018-04-09T10:07:06.387Z,57.00
2018-04-09T10:09:47.879Z,58.30
2018-04-09T10:12:16.038Z,45.97
2018-04-09T10:14:57.554Z,56.23
2018-04-09T10:17:25.690Z,45.00
2018-04-09T10:19:53.866Z,50.70
2018-04-09T10:22:36.019Z,50.13
2018-04-09T10:25:17.380Z,45.73
2018-04-09T10:27:59.005Z,42.60
2018-04-09T10:30:40.387Z,40.43
2018-04-09T10:33:08.584Z,46.10
2018-04-09T10:35:50.156Z,63.47
2018-04-09T10:38:18.328Z,64.13
2018-04-09T10:41:00.142Z,40.07
2018-04-09T10:43:28.292Z,52.63
2018-04-09T10:46:10.276Z,43.57
2018-04-09T10:48:51.814Z,50.30
2018-04-09T10:51:20.026Z,42.03
2018-04-09T10:53:48.245Z,44.40
2018-04-09T10:56:29.506Z,48.13
2018-04-09T10:58:57.921Z,42.27
2018-04-09T11:01:26.002Z,45.23
2018-04-09T11:03:54.647Z,55.33
2018-04-09T11:06:35.621Z,47.53
2018-04-09T11:09:16.877Z,45.63
2018-04-09T11:11:45.242Z,45.20
2018-04-09T11:14:13.419Z,52.57
2018-04-09T11:16:55.831Z,39.20
2018-04-09T11:19:36.751Z,42.85
2018-04-09T11:22:18.509Z,42.20
2018-04-09T11:25:00.068Z,43.63
2018-04-09T11:27:41.739Z,35.47
2018-04-09T11:30:24.203Z,48.80
2018-04-09T11:33:05.070Z,36.25
2018-04-09T11:35:47.164Z,31.27
2018-04-09T11:38:29.216Z,38.83
2018-04-09T11:41:11.664Z,39.13
2018-04-09T11:43:53.274Z,29.60
2018-04-09T11:46:34.447Z,23.97
2018-04-09T11:49:02.626Z,25.47
2018-04-09T11:51:30.723Z,27.90
2018-04-09T11:54:12.721Z,30.20
2018-04-09T11:56:54.240Z,25.63
2018-04-09T11:59:35.605Z,15.50
2018-04-09T12:02:17.902Z,21.15
2018-04-09T12:04:59.287Z,20.63
2018-04-09T12:07:27.414Z,29.57
2018-04-09T12:10:08.859Z,19.25
2018-04-09T12:12:36.956Z,26.37
2018-04-09T12:15:18.903Z,22.07
2018-04-09T12:17:47.048Z,26.50
2018-04-09T12:20:28.699Z,28.43
2018-04-09T12:23:10.743Z,19.52
2018-04-09T12:25:51.398Z,18.20
2018-04-09T12:28:32.841Z,18.03
2018-04-09T12:31:00.990Z,20.53
2018-04-09T12:33:29.123Z,25.65
2018-04-09T12:36:11.292Z,28.13
2018-04-09T12:38:52.146Z,23.93
2018-04-09T12:41:34.125Z,39.50
2018-04-09T12:44:15.707Z,26.70
2018-04-09T12:46:43.878Z,35.60
2018-04-09T12:49:25.385Z,36.07
2018-04-09T12:52:06.847Z,28.07
2018-04-09T12:54:48.340Z,20.83
2018-04-09T12:57:16.535Z,26.60
2018-04-09T12:59:44.659Z,27.23
2018-04-09T13:02:25.360Z,19.47
2018-04-09T13:05:06.089Z,17.87
2018-04-09T13:07:47.732Z,22.63
2018-04-09T13:10:29.111Z,33.70
2018-04-09T13:13:10.588Z,28.20
2018-04-09T13:15:51.357Z,30.77
2018-04-09T13:18:32.696Z,33.77
2018-04-09T13:21:00.808Z,23.73
2018-04-09T13:23:42.654Z,20.72
2018-04-09T13:26:10.968Z,32.03
2018-04-09T13:28:52.439Z,25.10
2018-04-09T13:31:33.719Z,28.10
2018-04-09T13:34:15.694Z,29.33
2018-04-09T13:36:57.046Z,27.40
2018-04-09T13:39:39.086Z,23.43
2018-04-09T13:42:07.215Z,23.43
2018-04-09T13:44:48.464Z,38.87
2018-04-09T13:47:30.421Z,24.27
2018-04-09T13:50:12.045Z,27.07
2018-04-09T13:52:54.044Z,26.13
2018-04-09T13:55:22.168Z,22.30
2018-04-09T13:58:04.136Z,30.00
2018-04-09T14:00:46.213Z,23.03
2018-04-09T14:03:28.164Z,22.03
2018-04-09T14:05:56.321Z,29.83
2018-04-09T14:08:24.498Z,27.67
2018-04-09T14:11:05.841Z,32.77
2018-04-09T14:13:47.286Z,28.02
2018-04-09T14:16:29.585Z,18.70
2018-04-09T14:18:57.469Z,29.97
2018-04-09T14:21:39.541Z,24.17
2018-04-09T14:24:21.211Z,19.30
2018-04-09T14:27:03.278Z,21.40
2018-04-09T14:29:45.284Z,16.93
2018-04-09T14:32:27.399Z,20.13
2018-04-09T14:35:09.396Z,25.77
2018-04-09T14:37:51.321Z,32.43
2018-04-09T14:40:32.131Z,32.50
2018-04-09T14:43:13.295Z,23.83
2018-04-09T14:45:54.722Z,34.53
2018-04-09T14:48:22.885Z,28.33
2018-04-09T14:51:03.695Z,35.37
2018-04-09T14:53:44.977Z,53.47
2018-04-09T14:56:26.128Z,38.73
2018-04-09T14:58:54.424Z,35.60
2018-04-09T15:01:36.188Z,35.10
2018-04-09T15:04:04.421Z,42.30
2018-04-09T15:06:46.256Z,33.37
2018-04-09T15:11:48.142Z,31.80
2018-04-09T15:14:30.457Z,34.50
2018-04-09T15:17:11.781Z,40.87
2018-04-09T15:19:52.569Z,36.20
2018-04-09T15:22:33.852Z,55.77
2018-04-09T15:25:14.562Z,35.53
2018-04-09T15:27:42.708Z,38.33
2018-04-09T15:30:25.535Z,37.20
2018-04-09T15:33:07.980Z,38.47
2018-04-09T15:35:49.154Z,35.40
2018-04-09T15:38:31.250Z,41.83
2018-04-09T15:41:12.009Z,36.13
2018-04-09T15:43:40.154Z,42.73
2018-04-09T15:46:22.738Z,41.10
2018-04-09T15:49:04.757Z,33.37
2018-04-09T15:51:46.136Z,30.20
2018-04-09T15:54:14.372Z,35.47
2018-04-09T15:56:55.734Z,27.60
2018-04-09T15:59:23.935Z,26.17
2018-04-09T16:02:04.898Z,27.47
2018-04-09T16:04:46.427Z,32.20
2018-04-09T16:07:27.898Z,45.80
2018-04-09T16:10:10.022Z,26.63
2018-04-09T16:12:52.115Z,32.93
2018-04-09T16:15:33.559Z,25.80
2018-04-09T16:18:15.029Z,37.53
2018-04-09T16:20:55.837Z,30.43
2018-04-09T16:23:37.354Z,40.60
2018-04-09T16:26:18.932Z,28.53
2018-04-09T16:29:00.916Z,24.53
2018-04-09T16:31:42.229Z,33.80
2018-04-09T16:36:57.850Z,30.03
2018-04-09T16:39:26.100Z,42.53
2018-04-09T16:42:07.545Z,31.77
2018-04-09T16:44:49.548Z,34.80
2018-04-09T16:47:17.765Z,30.33
2018-04-09T16:49:59.747Z,30.13
2018-04-09T16:52:40.464Z,30.77
2018-04-09T16:55:21.228Z,27.30
2018-04-09T16:58:03.339Z,34.03
2018-04-09T17:00:44.318Z,36.17
2018-04-09T17:03:26.329Z,37.60
2018-04-09T17:06:07.763Z,31.43
2018-04-09T17:08:35.997Z,44.10
2018-04-09T17:11:18.212Z,48.13
2018-04-09T17:13:46.416Z,54.27
2018-04-09T17:16:28.001Z,73.60
2018-04-09T17:18:56.190Z,42.17
2018-04-09T17:21:37.521Z,39.40
2018-04-09T17:24:05.662Z,54.17
2018-04-09T17:26:47.775Z,46.60
2018-04-09T17:29:29.062Z,49.50
2018-04-09T17:32:11.080Z,60.57
2018-04-09T17:34:52.705Z,37.07
2018-04-09T17:37:34.904Z,42.37
2018-04-09T17:40:16.279Z,42.40
2018-04-09T17:42:44.476Z,37.90
2018-04-09T17:45:12.613Z,48.57
2018-04-09T17:47:53.300Z,40.87
2018-04-09T17:50:34.161Z,45.97
2018-04-09T17:53:16.204Z,48.73
2018-04-09T17:55:44.361Z,46.50
2018-04-09T17:58:26.359Z,54.13
2018-04-09T18:01:07.959Z,46.73
2018-04-09T18:03:49.500Z,46.40
2018-04-09T18:06:17.763Z,49.13
2018-04-09T18:08:58.683Z,44.63
2018-04-09T18:11:40.708Z,52.80
2018-04-09T18:14:09.022Z,43.83
2018-04-09T18:16:36.961Z,48.78
2018-04-09T18:19:19.022Z,49.70
2018-04-09T18:21:47.215Z,34.67
2018-04-09T18:24:15.581Z,57.10
2018-04-09T18:26:43.797Z,52.63
2018-04-09T18:29:24.579Z,45.87
2018-04-09T18:32:05.469Z,42.87
2018-04-09T18:34:46.762Z,45.37
2018-04-09T18:37:28.366Z,51.13
2018-04-09T18:40:09.344Z,46.03
2018-04-09T18:42:50.645Z,49.53
2018-04-09T18:45:31.973Z,33.53
2018-04-09T18:48:00.293Z,38.83
2018-04-09T18:50:28.558Z,41.63
2018-04-09T18:53:09.950Z,47.30
2018-04-09T18:55:38.239Z,38.40
2018-04-09T18:58:06.486Z,36.70
2018-04-09T19:00:47.387Z,46.83
2018-04-09T19:03:29.067Z,39.57
2018-04-09T19:06:10.484Z,35.93
2018-04-09T19:08:51.968Z,40.73
2018-04-09T19:11:32.851Z,46.43
2018-04-09T19:14:01.596Z,37.40
2018-04-09T19:16:43.522Z,41.43
2018-04-09T19:19:25.817Z,42.80
2018-04-09T19:22:08.073Z,37.30
2018-04-09T19:24:49.769Z,48.63
2018-04-09T19:27:30.962Z,39.30
2018-04-09T19:30:12.318Z,40.50
2018-04-09T19:32:54.081Z,37.67
2018-04-09T19:47:19.633Z,30.30
2018-04-09T19:50:00.616Z,45.43
2018-04-09T19:52:41.887Z,42.10
2018-04-09T19:55:23.366Z,33.30
2018-04-09T19:57:51.626Z,40.10
2018-04-09T20:03:05.763Z,33.70
2018-04-09T20:05:34.072Z,28.47
2018-04-09T20:08:16.148Z,36.70
2018-04-09T20:10:44.408Z,27.20
2018-04-09T20:13:12.698Z,35.83
2018-04-09T20:15:54.736Z,29.53
2018-04-09T20:18:36.992Z,39.10
2018-04-09T20:21:19.091Z,38.55
2018-04-09T20:23:59.932Z,34.13
2018-04-09T20:26:41.937Z,33.65
2018-04-09T20:29:23.443Z,47.50
2018-04-09T20:32:05.500Z,31.90
2018-04-09T20:34:46.886Z,40.63
2018-04-09T20:37:15.145Z,37.60
2018-04-09T20:39:57.280Z,40.53
2018-04-09T20:42:25.577Z,40.43
2018-04-09T20:47:49.310Z,39.03
2018-04-09T20:50:30.266Z,35.57
2018-04-09T20:53:11.283Z,37.60
2018-04-09T20:55:39.625Z,44.07
2018-04-09T20:58:07.863Z,36.40
2018-04-09T21:00:50.107Z,29.47
2018-04-09T21:03:18.345Z,33.63
2018-04-09T21:05:59.981Z,43.47
2018-04-09T21:08:41.671Z,37.30
2018-04-09T21:11:23.871Z,51.70
2018-04-09T21:14:05.053Z,33.20
2018-04-09T21:16:33.354Z,35.53
2018-04-09T21:19:01.711Z,38.20
2018-04-09T21:21:29.994Z,39.73
2018-04-09T21:24:11.522Z,33.67
2018-04-09T21:26:39.765Z,37.53
2018-04-09T21:29:21.130Z,46.93
2018-04-09T21:31:49.395Z,55.33
2018-04-09T21:34:17.693Z,37.27
2018-04-09T21:36:59.398Z,50.73
2018-04-09T21:39:41.416Z,38.30
2018-04-09T21:42:22.300Z,43.83
2018-04-09T21:45:03.601Z,36.75
2018-04-09T21:47:45.338Z,39.10
2018-04-09T21:50:13.657Z,36.80
2018-04-09T21:52:55.907Z,34.60
2018-04-09T21:55:37.599Z,38.07
2018-04-09T21:58:19.619Z,39.80
2018-04-09T22:00:48.085Z,38.23
2018-04-09T22:03:29.030Z,31.23
2018-04-09T22:05:57.277Z,46.13
2018-04-09T22:08:25.661Z,36.80
2018-04-09T22:11:06.681Z,40.03
2018-04-09T22:13:48.049Z,36.43
2018-04-09T22:16:28.959Z,38.45
2018-04-09T22:21:30.826Z,38.63
2018-04-09T22:24:12.850Z,36.90
2018-04-09T22:26:54.982Z,33.40
2018-04-09T22:29:23.325Z,36.83
2018-04-09T22:32:05.410Z,30.52
2018-04-09T22:34:46.860Z,35.33
2018-04-09T22:37:15.136Z,32.30
2018-04-09T22:39:56.146Z,30.67
2018-04-09T22:42:37.854Z,35.60
2018-04-09T22:45:19.918Z,39.10
2018-04-09T22:48:01.309Z,38.53
2018-04-09T22:50:42.263Z,34.53
2018-04-09T22:53:23.652Z,35.73
2018-04-09T22:56:06.066Z,29.07
2018-04-09T22:58:47.657Z,33.42
2018-04-09T23:01:28.962Z,34.60
2018-04-09T23:03:57.329Z,34.23
2018-04-09T23:06:25.617Z,37.13
2018-04-09T23:09:06.832Z,37.80
2018-04-09T23:11:35.093Z,27.93
2018-04-09T23:14:17.144Z,40.03
2018-04-09T23:16:45.482Z,25.60
2018-04-09T23:21:47.445Z,34.70
2018-04-09T23:24:28.301Z,35.93
2018-04-09T23:27:09.943Z,31.87
2018-04-09T23:29:52.022Z,34.20
2018-04-09T23:32:20.281Z,38.90
2018-04-09T23:35:01.181Z,39.33
2018-04-09T23:37:42.764Z,34.50
2018-04-09T23:40:24.357Z,31.40
2018-04-09T23:42:52.494Z,34.10
2018-04-09T23:45:20.714Z,46.63
2018-04-09T23:48:02.340Z,36.20
2018-04-09T23:50:30.544Z,39.10
2018-04-09T23:53:12.547Z,29.80
2018-04-09T23:55:53.777Z,35.73
2018-04-09T23:58:35.248Z,38.23
